createdAt,value
2023-05-14T00:00:03.852Z,991.6203
2023-05-14T00:01:01.617Z,991.879
2023-05-14T00:02:03.903Z,991.7935
2023-05-14T00:03:02.881Z,991.6289
2023-05-14T00:04:01.496Z,991.6289
2023-05-14T00:05:03.603Z,991.7299
2023-05-14T00:06:01.401Z,991.7665
2023-05-14T00:07:01.844Z,991.7167
2023-05-14T00:08:02.341Z,991.6236
2023-05-14T00:09:03.456Z,991.7244
2023-05-14T00:10:02.242Z,991.6102
2023-05-14T00:11:01.713Z,991.6465
2023-05-14T00:12:02.165Z,991.719
2023-05-14T00:13:01.701Z,991.6329
2023-05-14T00:14:03.801Z,991.5893
2023-05-14T00:15:03.303Z,991.4705
2023-05-14T00:16:02.172Z,991.4971
2023-05-14T00:17:01.528Z,991.5407
2023-05-14T00:18:02.086Z,991.5414
2023-05-14T00:19:01.534Z,991.5921
2023-05-14T00:20:01.939Z,991.6208
2023-05-14T00:21:01.397Z,991.707
2023-05-14T00:22:01.858Z,991.6007
2023-05-14T00:23:03.092Z,991.4174
2023-05-14T00:24:01.843Z,991.4033
2023-05-14T00:25:02.339Z,991.5873
2023-05-14T00:26:03.361Z,991.5873
2023-05-14T00:27:02.272Z,991.6387
2023-05-14T00:28:03.381Z,991.5602
2023-05-14T00:29:03.852Z,991.675
2023-05-14T00:30:01.606Z,991.5602
2023-05-14T00:31:02.119Z,991.582
2023-05-14T00:32:01.741Z,991.4564
2023-05-14T00:33:02.064Z,991.5047
2023-05-14T00:34:01.669Z,991.4721
2023-05-14T00:35:02.024Z,991.5054
2023-05-14T00:36:01.435Z,991.5057
2023-05-14T00:37:01.921Z,991.4442
2023-05-14T00:38:01.380Z,991.535
2023-05-14T00:39:01.947Z,991.5209
2023-05-14T00:40:01.291Z,991.5496
2023-05-14T00:41:01.779Z,991.5436
2023-05-14T00:42:03.943Z,991.4396
2023-05-14T00:43:03.375Z,991.5446
2023-05-14T00:44:02.236Z,991.4662
2023-05-14T00:45:01.698Z,991.2972
2023-05-14T00:46:02.382Z,991.4551
2023-05-14T00:47:01.724Z,991.3911
2023-05-14T00:48:02.161Z,991.3987
2023-05-14T00:49:01.564Z,991.4741
2023-05-14T00:50:03.722Z,991.4475
2023-05-14T00:51:01.460Z,991.4265
2023-05-14T00:52:01.945Z,991.4057
2023-05-14T00:53:01.472Z,991.3701
2023-05-14T00:54:01.897Z,991.5034
2023-05-14T00:55:03.146Z,991.4059
2023-05-14T00:56:01.869Z,991.4353
2023-05-14T00:57:02.296Z,991.4353
2023-05-14T00:58:01.821Z,991.4066
2023-05-14T00:59:02.269Z,991.4499
2023-05-14T01:00:01.702Z,991.4492
2023-05-14T01:01:02.195Z,991.3569
2023-05-14T01:02:01.637Z,991.3925
2023-05-14T01:03:02.186Z,991.3569
2023-05-14T01:04:01.718Z,991.2996
2023-05-14T01:05:02.091Z,991.3569
2023-05-14T01:06:03.216Z,991.4578
2023-05-14T01:07:02.015Z,991.4508
2023-05-14T01:08:03.324Z,991.3937
2023-05-14T01:09:01.938Z,991.2581
2023-05-14T01:10:03.053Z,991.2363
2023-05-14T01:11:02.102Z,991.3796
2023-05-14T01:12:01.525Z,991.2502
2023-05-14T01:13:02.019Z,991.3362
2023-05-14T01:14:01.493Z,991.3937
2023-05-14T01:15:01.945Z,991.3364
2023-05-14T01:16:01.386Z,991.3651
2023-05-14T01:17:03.680Z,991.3937
2023-05-14T01:18:01.439Z,991.3648
2023-05-14T01:19:01.832Z,991.3935
2023-05-14T01:20:02.270Z,991.3937
2023-05-14T01:21:01.770Z,991.3789
2023-05-14T01:22:02.255Z,991.3569
2023-05-14T01:23:01.689Z,991.3925
2023-05-14T01:24:02.179Z,991.5973
2023-05-14T01:25:01.617Z,991.4066
2023-05-14T01:26:02.085Z,991.4136
2023-05-14T01:27:03.211Z,991.4561
2023-05-14T01:28:01.999Z,991.5034
2023-05-14T01:29:01.543Z,991.3562
2023-05-14T01:30:02.051Z,991.3345
2023-05-14T01:31:01.446Z,991.3275
2023-05-14T01:32:01.954Z,991.2633
2023-05-14T01:33:01.371Z,991.464
2023-05-14T01:34:01.862Z,991.4353
2023-05-14T01:35:02.990Z,991.3639
2023-05-14T01:36:01.759Z,991.4709
2023-05-14T01:37:02.262Z,991.2989
2023-05-14T01:38:03.365Z,991.4826
2023-05-14T01:39:02.190Z,991.3352
2023-05-14T01:40:01.747Z,991.5113
2023-05-14T01:41:03.800Z,991.3352
2023-05-14T01:42:01.622Z,991.4499
2023-05-14T01:43:03.858Z,991.3352
2023-05-14T01:44:03.215Z,991.4499
2023-05-14T01:45:03.720Z,991.4499
2023-05-14T01:46:01.508Z,991.2492
2023-05-14T01:47:03.602Z,991.3345
2023-05-14T01:48:01.482Z,991.5321
2023-05-14T01:49:01.851Z,991.2996
2023-05-14T01:51:03.467Z,991.3935
2023-05-14T01:52:03.923Z,991.5268
2023-05-14T01:53:01.698Z,991.3569
2023-05-14T01:54:02.183Z,991.2642
2023-05-14T01:55:03.389Z,991.3569
2023-05-14T01:56:02.176Z,991.4649
2023-05-14T01:57:03.351Z,991.4695
2023-05-14T01:58:03.697Z,991.3937
2023-05-14T01:59:01.563Z,991.3727
2023-05-14T02:00:02.042Z,991.3371
2023-05-14T02:01:01.466Z,991.3727
2023-05-14T02:02:03.605Z,991.3154
2023-05-14T02:03:01.431Z,991.4587
2023-05-14T02:04:03.568Z,991.3727
2023-05-14T02:05:03.906Z,991.3651
2023-05-14T02:06:01.774Z,991.2867
2023-05-14T02:07:02.257Z,991.3651
2023-05-14T02:08:01.700Z,991.3937
2023-05-14T02:09:02.214Z,991.351
2023-05-14T02:10:01.700Z,991.3154
2023-05-14T02:11:02.134Z,991.3648
2023-05-14T02:12:03.300Z,991.2791
2023-05-14T02:13:02.093Z,991.3503
2023-05-14T02:14:01.529Z,991.2929
2023-05-14T02:15:03.688Z,991.1209
2023-05-14T02:16:01.542Z,991.3569
2023-05-14T02:17:01.460Z,991.1849
2023-05-14T02:18:03.632Z,991.2791
2023-05-14T02:19:01.392Z,991.2867
2023-05-14T02:20:01.860Z,991.1869
2023-05-14T02:21:01.372Z,991.1296
2023-05-14T02:22:01.796Z,991.3154
2023-05-14T02:23:02.260Z,991.265
2023-05-14T02:24:01.785Z,991.1644
2023-05-14T02:25:02.293Z,991.3077
2023-05-14T02:26:01.724Z,991.1849
2023-05-14T02:27:03.863Z,991.2205
2023-05-14T02:28:01.617Z,991.0626
2023-05-14T02:29:02.115Z,991.0208
2023-05-14T02:30:01.547Z,990.9924
2023-05-14T02:31:02.074Z,991.1644
2023-05-14T02:32:01.456Z,991.1644
2023-05-14T02:33:02.018Z,991.1071
2023-05-14T02:34:01.464Z,991.1137
2023-05-14T02:35:01.931Z,991.0485
2023-05-14T02:36:03.065Z,991.0982
2023-05-14T02:37:01.840Z,991.0408
2023-05-14T02:38:02.330Z,991.0052
2023-05-14T02:39:01.774Z,991.0626
2023-05-14T02:40:02.252Z,991.0121
2023-05-14T02:41:01.695Z,991.0626
2023-05-14T02:42:02.199Z,991.0626
2023-05-14T02:43:03.364Z,991.1486
2023-05-14T02:44:02.124Z,991.1486
2023-05-14T02:45:03.289Z,991.0772
2023-05-14T02:46:02.014Z,991.0702
2023-05-14T02:47:01.577Z,991.0129
2023-05-14T02:48:02.047Z,990.9051
2023-05-14T02:49:01.455Z,991.0062
2023-05-14T02:50:01.916Z,991.0702
2023-05-14T02:51:01.372Z,990.9766
2023-05-14T02:52:01.861Z,991.0702
2023-05-14T02:53:01.373Z,991.0702
2023-05-14T02:54:01.772Z,991.0198
2023-05-14T02:55:02.245Z,991.0564
2023-05-14T02:56:01.780Z,990.9635
2023-05-14T02:57:03.877Z,991.0782
2023-05-14T02:58:01.709Z,991.1068
2023-05-14T02:59:02.105Z,991.0782
2023-05-14T03:00:01.608Z,991.0497
2023-05-14T03:01:02.135Z,991.1147
2023-05-14T03:02:01.558Z,991.0861
2023-05-14T03:03:02.059Z,990.9924
2023-05-14T03:04:01.443Z,991.1357
2023-05-14T03:05:03.610Z,991.0497
2023-05-14T03:06:01.446Z,990.9141
2023-05-14T03:07:01.935Z,991.0001
2023-05-14T03:08:01.388Z,991.0001
2023-05-14T03:09:01.869Z,991.0574
2023-05-14T03:10:01.298Z,991.0149
2023-05-14T03:11:01.810Z,991.0436
2023-05-14T03:12:02.243Z,990.9862
2023-05-14T03:13:01.798Z,991.0149
2023-05-14T03:14:02.254Z,991.0001
2023-05-14T03:15:03.371Z,991.007
2023-05-14T03:16:03.873Z,990.8923
2023-05-14T03:17:01.683Z,990.8491
2023-05-14T03:18:02.288Z,990.8491
2023-05-14T03:19:01.548Z,991.0497
2023-05-14T03:20:03.708Z,990.9637
2023-05-14T03:21:01.535Z,990.9637
2023-05-14T03:22:02.177Z,990.7917
2023-05-14T03:23:01.634Z,990.7055
2023-05-14T03:24:02.092Z,990.8916
2023-05-14T03:25:03.304Z,990.7628
2023-05-14T03:26:02.008Z,990.8775
2023-05-14T03:27:01.518Z,990.8923
2023-05-14T03:28:02.034Z,990.8567
2023-05-14T03:29:01.450Z,990.9064
2023-05-14T03:30:01.923Z,990.8777
2023-05-14T03:31:01.405Z,990.7917
2023-05-14T03:32:01.841Z,990.9348
2023-05-14T03:33:02.390Z,990.7917
2023-05-14T03:34:01.782Z,990.9637
2023-05-14T03:35:02.287Z,990.9064
2023-05-14T03:36:01.717Z,990.9064
2023-05-14T03:37:02.178Z,990.7917
2023-05-14T03:38:01.728Z,990.7628
2023-05-14T03:39:02.171Z,990.8916
2023-05-14T03:40:01.610Z,990.7915
2023-05-14T03:41:02.120Z,990.7344
2023-05-14T03:42:01.523Z,990.9131
2023-05-14T03:43:02.034Z,990.8696
2023-05-14T03:44:01.524Z,990.8045
2023-05-14T03:45:03.625Z,990.7828
2023-05-14T03:46:01.468Z,990.8253
2023-05-14T03:47:01.870Z,990.7748
2023-05-14T03:48:01.472Z,990.8609
2023-05-14T03:49:01.968Z,990.8609
2023-05-14T03:50:02.319Z,990.8609
2023-05-14T03:51:01.767Z,990.8964
2023-05-14T03:52:02.282Z,990.7106
2023-05-14T03:53:01.689Z,990.8539
2023-05-14T03:54:02.182Z,990.6888
2023-05-14T03:55:01.605Z,990.8609
2023-05-14T03:56:02.090Z,990.8609
2023-05-14T03:57:03.231Z,990.8964
2023-05-14T03:58:02.014Z,990.7175
2023-05-14T03:59:01.534Z,990.8609
2023-05-14T04:00:02.017Z,990.9392
2023-05-14T04:01:01.440Z,990.8816
2023-05-14T04:02:01.929Z,990.7382
2023-05-14T04:03:01.444Z,990.8383
2023-05-14T04:04:01.968Z,990.8522
2023-05-14T04:05:03.047Z,990.7228
2023-05-14T04:06:03.449Z,990.7228
2023-05-14T04:07:02.255Z,990.7367
2023-05-14T04:08:01.781Z,990.7367
2023-05-14T04:09:02.276Z,990.8079
2023-05-14T04:10:04.231Z,990.6071
2023-05-14T04:11:03.839Z,990.7564
2023-05-14T04:12:01.612Z,990.6121
2023-05-14T04:13:02.131Z,990.6836
2023-05-14T04:14:03.204Z,990.5975
2023-05-14T04:15:02.033Z,990.6547
2023-05-14T04:16:01.541Z,990.554
2023-05-14T04:17:02.060Z,990.7182
2023-05-14T04:18:01.520Z,990.7317
2023-05-14T04:19:01.946Z,990.4876
2023-05-14T04:20:01.367Z,990.5657
2023-05-14T04:21:01.854Z,990.6361
2023-05-14T04:22:02.334Z,990.6858
2023-05-14T04:23:01.785Z,990.6564
2023-05-14T04:24:02.246Z,990.8355
2023-05-14T04:25:01.777Z,990.5979
2023-05-14T04:26:02.265Z,990.5753
2023-05-14T04:27:01.682Z,990.4743
2023-05-14T04:28:02.258Z,990.6458
2023-05-14T04:29:03.445Z,990.7171
2023-05-14T04:31:01.768Z,990.586
2023-05-14T04:32:02.297Z,990.686
2023-05-14T04:33:01.706Z,990.5993
2023-05-14T04:34:02.167Z,990.5626
2023-05-14T04:35:01.710Z,990.5905
2023-05-14T04:36:02.165Z,990.4753
2023-05-14T04:37:03.290Z,990.5825
2023-05-14T04:38:03.761Z,990.5389
2023-05-14T04:39:01.528Z,990.6818
2023-05-14T04:40:02.061Z,990.7244
2023-05-14T04:41:01.435Z,990.6451
2023-05-14T04:42:03.613Z,990.6371
2023-05-14T04:43:01.360Z,990.5791
2023-05-14T04:44:01.902Z,990.5642
2023-05-14T04:45:01.390Z,990.585
2023-05-14T04:46:01.921Z,990.5988
2023-05-14T04:47:02.257Z,990.699
2023-05-14T04:48:01.920Z,990.6196
2023-05-14T04:49:02.248Z,990.5403
2023-05-14T04:50:03.399Z,990.5752
2023-05-14T04:51:02.158Z,990.7398
2023-05-14T04:52:01.604Z,990.4809
2023-05-14T04:53:02.087Z,990.581
2023-05-14T04:54:03.248Z,990.5949
2023-05-14T04:55:02.026Z,990.5219
2023-05-14T04:56:01.490Z,990.507
2023-05-14T04:57:01.921Z,990.6431
2023-05-14T04:58:01.444Z,990.5419
2023-05-14T04:59:01.933Z,990.3562
2023-05-14T05:00:03.046Z,990.4835
2023-05-14T05:01:01.875Z,990.3772
2023-05-14T05:02:01.820Z,990.5696
2023-05-14T05:03:01.954Z,990.4057
2023-05-14T05:05:01.841Z,990.3759
2023-05-14T05:06:02.353Z,990.5824
2023-05-14T05:07:01.774Z,990.5161
2023-05-14T05:08:02.272Z,990.4097
2023-05-14T05:09:02.378Z,990.4158
2023-05-14T05:10:03.125Z,990.5782
2023-05-14T05:11:02.036Z,990.4419
2023-05-14T05:12:01.688Z,990.3753
2023-05-14T05:13:02.174Z,990.4726
2023-05-14T05:14:01.857Z,990.4003
2023-05-14T05:15:03.222Z,990.3837
2023-05-14T05:16:03.853Z,990.3608
2023-05-14T05:17:01.686Z,990.5756
2023-05-14T05:18:02.281Z,990.325
2023-05-14T05:19:01.957Z,990.4742
2023-05-14T05:20:01.305Z,990.5388
2023-05-14T05:21:01.931Z,990.3311
2023-05-14T05:22:01.483Z,990.345
2023-05-14T05:23:01.943Z,990.4147
2023-05-14T05:24:01.533Z,990.5559
2023-05-14T05:25:02.104Z,990.5175
2023-05-14T05:26:01.677Z,990.4448
2023-05-14T05:27:02.256Z,990.4768
2023-05-14T05:28:01.771Z,990.5616
2023-05-14T05:29:03.962Z,990.3445
2023-05-14T05:30:03.565Z,990.3221
2023-05-14T05:31:01.813Z,990.5573
2023-05-14T05:32:01.307Z,990.5285
2023-05-14T05:33:01.839Z,990.2693
2023-05-14T05:34:01.537Z,990.341
2023-05-14T05:35:01.695Z,990.4833
2023-05-14T05:36:01.698Z,990.5263
2023-05-14T05:37:07.638Z,990.5472
2023-05-14T05:38:02.376Z,990.3091
2023-05-14T05:39:01.778Z,990.5504
2023-05-14T05:40:03.937Z,990.3612
2023-05-14T05:41:03.374Z,990.4022
2023-05-14T05:42:02.184Z,990.3641
2023-05-14T05:43:01.611Z,990.4982
2023-05-14T05:44:02.094Z,990.4196
2023-05-14T05:45:01.606Z,990.3965
2023-05-14T05:46:03.728Z,990.3957
2023-05-14T05:47:01.545Z,990.3957
2023-05-14T05:48:02.076Z,990.3944
2023-05-14T05:49:01.440Z,990.5714
2023-05-14T05:50:01.959Z,990.4819
2023-05-14T05:51:01.438Z,990.473
2023-05-14T05:52:01.918Z,990.3433
2023-05-14T05:53:01.402Z,990.4361
2023-05-14T05:54:03.537Z,990.3473
2023-05-14T05:56:01.778Z,990.5146
2023-05-14T05:57:02.263Z,990.3765
2023-05-14T05:58:01.790Z,990.4337
2023-05-14T05:59:02.172Z,990.4484
2023-05-14T06:00:01.685Z,990.4867
2023-05-14T06:01:03.845Z,990.2523
2023-05-14T06:02:01.639Z,990.3991
2023-05-14T06:03:02.231Z,990.696
2023-05-14T06:04:01.528Z,990.5809
2023-05-14T06:05:02.062Z,990.3812
2023-05-14T06:06:01.511Z,990.3739
2023-05-14T06:07:02.019Z,990.441
2023-05-14T06:08:01.454Z,990.2758
2023-05-14T06:09:01.971Z,990.5143
2023-05-14T06:10:01.458Z,990.4086
2023-05-14T06:11:01.848Z,990.359
2023-05-14T06:12:03.054Z,990.5095
2023-05-14T06:13:01.843Z,990.3448
2023-05-14T06:14:02.340Z,990.639
2023-05-14T06:15:01.813Z,990.5213
2023-05-14T06:16:02.262Z,990.4496
2023-05-14T06:17:03.419Z,990.3916
2023-05-14T06:18:02.180Z,990.4969
2023-05-14T06:19:01.782Z,990.3533
2023-05-14T06:20:02.169Z,990.546
2023-05-14T06:21:01.611Z,990.36
2023-05-14T06:22:02.079Z,990.3243
2023-05-14T06:23:01.547Z,990.4399
2023-05-14T06:24:02.030Z,990.4013
2023-05-14T06:25:03.216Z,990.3384
2023-05-14T06:26:02.064Z,990.3217
2023-05-14T06:27:01.442Z,990.5726
2023-05-14T06:28:03.628Z,990.3338
2023-05-14T06:29:03.054Z,990.5205
2023-05-14T06:30:03.528Z,990.4087
2023-05-14T06:32:01.833Z,990.3559
2023-05-14T06:33:02.258Z,990.2414
2023-05-14T06:34:01.797Z,990.4771
2023-05-14T06:35:03.927Z,990.2971
2023-05-14T06:36:03.282Z,990.2682
2023-05-14T06:37:02.091Z,990.442
2023-05-14T06:38:01.616Z,990.3841
2023-05-14T06:39:02.104Z,990.4779
2023-05-14T06:40:01.529Z,990.1971
2023-05-14T06:41:02.086Z,990.491
2023-05-14T06:42:01.627Z,990.4254
2023-05-14T06:43:02.109Z,990.3217
2023-05-14T06:44:01.531Z,990.2895
2023-05-14T06:45:02.053Z,990.4055
2023-05-14T06:46:02.013Z,990.4036
2023-05-14T06:47:01.525Z,990.3517
2023-05-14T06:48:03.777Z,990.2647
2023-05-14T06:49:03.137Z,990.3198
2023-05-14T06:50:01.927Z,990.3647
2023-05-14T06:51:01.439Z,990.2839
2023-05-14T06:52:01.852Z,990.2178
2023-05-14T06:53:02.328Z,990.0945
2023-05-14T06:54:01.792Z,990.3246
2023-05-14T06:55:02.272Z,990.2167
2023-05-14T06:56:01.681Z,990.3316
2023-05-14T06:57:02.165Z,990.1495
2023-05-14T06:58:01.594Z,990.2956
2023-05-14T06:59:03.763Z,990.2839
2023-05-14T07:00:03.271Z,990.1138
2023-05-14T07:01:02.058Z,990.1874
2023-05-14T07:02:01.622Z,990.2893
2023-05-14T07:03:02.031Z,990.2832
2023-05-14T07:04:03.137Z,990.1673
2023-05-14T07:05:03.645Z,990.3674
2023-05-14T07:06:01.360Z,990.2217
2023-05-14T07:07:01.858Z,990.1757
2023-05-14T07:08:01.366Z,990.1525
2023-05-14T07:09:01.855Z,990.2164
2023-05-14T07:10:02.328Z,990.1355
2023-05-14T07:11:01.784Z,990.2067
2023-05-14T07:12:03.926Z,990.1392
2023-05-14T07:13:01.723Z,990.1222
2023-05-14T07:14:02.171Z,990.0766
2023-05-14T07:15:01.733Z,990.0398
2023-05-14T07:16:03.770Z,990.0526
2023-05-14T07:17:01.656Z,990.0571
2023-05-14T07:18:02.153Z,990.006
2023-05-14T07:19:01.683Z,990.0529
2023-05-14T07:20:02.052Z,990.0271
2023-05-14T07:21:01.536Z,989.9849
2023-05-14T07:22:02.021Z,990.0869
2023-05-14T07:23:01.466Z,989.9738
2023-05-14T07:24:01.937Z,990.0629
2023-05-14T07:25:03.237Z,989.9238
2023-05-14T07:26:01.921Z,989.8939
2023-05-14T07:27:01.364Z,989.8648
2023-05-14T07:28:01.853Z,989.9157
2023-05-14T07:29:01.281Z,989.8657
2023-05-14T07:30:01.785Z,989.918
2023-05-14T07:31:02.311Z,989.9188
2023-05-14T07:32:01.808Z,990.0657
2023-05-14T07:33:02.288Z,989.8116
2023-05-14T07:34:03.374Z,989.8369
2023-05-14T07:35:03.856Z,989.9241
2023-05-14T07:36:01.589Z,989.8038
2023-05-14T07:37:02.121Z,989.8865
2023-05-14T07:38:01.625Z,989.9457
2023-05-14T07:39:02.094Z,989.8955
2023-05-14T07:40:01.538Z,989.9945
2023-05-14T07:41:02.003Z,989.8865
2023-05-14T07:42:01.545Z,989.7204
2023-05-14T07:43:02.009Z,989.8084
2023-05-14T07:44:03.136Z,989.7817
2023-05-14T07:45:01.965Z,989.9198
2023-05-14T07:46:01.388Z,989.7886
2023-05-14T07:47:01.952Z,989.8505
2023-05-14T07:48:03.107Z,989.8619
2023-05-14T07:49:01.852Z,989.8107
2023-05-14T07:50:02.271Z,989.7707
2023-05-14T07:51:01.791Z,989.7533
2023-05-14T07:52:02.243Z,989.7204
2023-05-14T07:53:03.386Z,989.6333
2023-05-14T07:54:01.358Z,989.7451
2023-05-14T07:55:03.454Z,989.6539
2023-05-14T07:56:02.250Z,989.8167
2023-05-14T07:57:01.771Z,989.8866
2023-05-14T07:58:02.167Z,989.7742
2023-05-14T07:59:01.695Z,989.7935
2023-05-14T08:00:02.174Z,989.6889
2023-05-14T08:01:01.639Z,989.5934
2023-05-14T08:02:02.203Z,989.8495
2023-05-14T08:03:01.694Z,989.8175
2023-05-14T08:04:02.199Z,989.7662
2023-05-14T08:05:01.450Z,989.8478
2023-05-14T08:06:01.966Z,989.7772
2023-05-14T08:07:01.458Z,989.6727
2023-05-14T08:08:01.945Z,989.6746
2023-05-14T08:09:03.053Z,989.7399
2023-05-14T08:10:01.864Z,989.7201
2023-05-14T08:11:02.383Z,989.8687
2023-05-14T08:12:01.781Z,989.7603
2023-05-14T08:13:02.299Z,989.725
2023-05-14T08:14:01.703Z,989.6185
2023-05-14T08:15:03.913Z,989.7644
2023-05-14T08:16:01.597Z,989.7154
2023-05-14T08:17:02.268Z,989.6555
2023-05-14T08:18:01.601Z,989.7213
2023-05-14T08:19:02.063Z,989.5875
2023-05-14T08:20:01.535Z,989.7755
2023-05-14T08:21:03.522Z,989.8175
2023-05-14T08:22:03.135Z,989.5962
2023-05-14T08:23:01.958Z,989.5024
2023-05-14T08:24:01.394Z,989.6767
2023-05-14T08:25:01.863Z,989.616
2023-05-14T08:26:03.999Z,989.7017
2023-05-14T08:27:03.466Z,989.6755
2023-05-14T08:28:02.269Z,989.5626
2023-05-14T08:29:03.375Z,989.6393
2023-05-14T08:30:03.861Z,989.6688
2023-05-14T08:31:03.349Z,989.5979
2023-05-14T08:32:08.692Z,989.5407
2023-05-14T08:33:01.614Z,989.5769
2023-05-14T08:34:03.746Z,989.5669
2023-05-14T08:35:03.144Z,989.7983
2023-05-14T08:36:01.965Z,989.7817
2023-05-14T08:37:01.477Z,989.6068
2023-05-14T08:38:01.939Z,989.629
2023-05-14T08:39:01.393Z,989.6211
2023-05-14T08:40:01.889Z,989.5463
2023-05-14T08:41:02.381Z,989.4347
2023-05-14T08:42:01.827Z,989.5462
2023-05-14T08:43:02.381Z,989.6137
2023-05-14T08:44:01.710Z,989.532
2023-05-14T08:45:02.246Z,989.4843
2023-05-14T08:46:01.679Z,989.4057
2023-05-14T08:47:02.169Z,989.5155
2023-05-14T08:48:01.780Z,989.4529
2023-05-14T08:49:03.868Z,989.456
2023-05-14T08:50:01.571Z,989.5408
2023-05-14T08:51:02.052Z,989.4954
2023-05-14T08:52:01.558Z,989.5408
2023-05-14T08:53:02.029Z,989.4479
2023-05-14T08:54:01.485Z,989.4772
2023-05-14T08:55:03.630Z,989.3114
2023-05-14T08:56:01.390Z,989.4225
2023-05-14T08:57:03.549Z,989.3389
2023-05-14T08:58:03.072Z,989.4429
2023-05-14T08:59:01.776Z,989.3612
2023-05-14T09:00:02.272Z,989.2977
2023-05-14T09:01:02.892Z,989.4087
2023-05-14T09:02:03.378Z,989.3194
2023-05-14T09:03:02.135Z,989.4492
2023-05-14T09:04:01.672Z,989.3563
2023-05-14T09:05:02.024Z,989.5408
2023-05-14T09:06:03.154Z,989.2458
2023-05-14T09:07:01.995Z,989.4225
2023-05-14T09:08:01.445Z,989.37
2023-05-14T09:09:01.931Z,989.2507
2023-05-14T09:10:01.363Z,989.3435
2023-05-14T09:11:01.868Z,989.2009
2023-05-14T09:12:01.372Z,989.261
2023-05-14T09:13:01.861Z,989.4006
2023-05-14T09:14:02.329Z,989.1555
2023-05-14T09:15:01.777Z,989.4334
2023-05-14T09:16:02.321Z,989.2084
2023-05-14T09:17:03.382Z,989.18
2023-05-14T09:18:02.214Z,989.2094
2023-05-14T09:19:01.806Z,989.2601
2023-05-14T09:20:02.160Z,989.3441
2023-05-14T09:21:01.631Z,989.2192
2023-05-14T09:22:03.766Z,989.1921
2023-05-14T09:23:01.560Z,989.2983
2023-05-14T09:24:01.999Z,989.2047
2023-05-14T09:25:01.521Z,989.1754
2023-05-14T09:26:02.015Z,989.2199
2023-05-14T09:27:03.136Z,989.4682
2023-05-14T09:28:01.930Z,989.0735
2023-05-14T09:29:03.131Z,989.2407
2023-05-14T09:30:01.920Z,989.2047
2023-05-14T09:31:01.369Z,989.3206
2023-05-14T09:32:01.928Z,989.1196
2023-05-14T09:33:01.405Z,989.2218
2023-05-14T09:34:01.847Z,989.3956
2023-05-14T09:35:02.337Z,989.4682
2023-05-14T09:36:01.748Z,989.3157
2023-05-14T09:37:02.260Z,989.1754
2023-05-14T09:38:03.395Z,989.3157
2023-05-14T09:39:03.846Z,989.2148
2023-05-14T09:40:01.679Z,989.1925
2023-05-14T09:41:03.794Z,989.2087
2023-05-14T09:42:01.601Z,988.9745
2023-05-14T09:43:02.084Z,989.1196
2023-05-14T09:44:01.513Z,988.9875
2023-05-14T09:45:02.018Z,989.0544
2023-05-14T09:46:01.442Z,989.047
2023-05-14T09:47:03.647Z,988.9723
2023-05-14T09:48:01.662Z,989.0086
2023-05-14T09:49:01.929Z,989.0357
2023-05-14T09:50:01.385Z,989.0427
2023-05-14T09:51:02.803Z,989.0512
2023-05-14T09:52:01.376Z,989.1269
2023-05-14T09:53:03.448Z,988.8803
2023-05-14T09:54:02.326Z,988.9284
2023-05-14T09:55:01.790Z,988.8287
2023-05-14T09:56:03.938Z,988.8268
2023-05-14T09:57:01.700Z,989.0636
2023-05-14T09:58:03.858Z,988.9038
2023-05-14T09:59:01.682Z,989.0108
2023-05-14T10:00:02.157Z,988.7826
2023-05-14T10:01:01.641Z,988.8421
2023-05-14T10:02:02.113Z,988.936
2023-05-14T10:03:01.595Z,988.8634
2023-05-14T10:04:02.022Z,988.7495
2023-05-14T10:05:01.554Z,988.8736
2023-05-14T10:06:02.013Z,988.7361
2023-05-14T10:07:01.439Z,988.8497
2023-05-14T10:08:03.603Z,988.8567
2023-05-14T10:09:01.444Z,988.8778
2023-05-14T10:10:03.738Z,988.7363
2023-05-14T10:11:01.601Z,988.6391
2023-05-14T10:12:02.009Z,988.7598
2023-05-14T10:13:03.114Z,988.8303
2023-05-14T10:14:01.917Z,988.6744
2023-05-14T10:15:01.382Z,988.6944
2023-05-14T10:16:01.857Z,988.6861
2023-05-14T10:17:01.357Z,988.6944
2023-05-14T10:18:03.515Z,988.6491
2023-05-14T10:19:02.281Z,988.7027
2023-05-14T10:20:03.364Z,988.706
2023-05-14T10:21:02.177Z,988.6331
2023-05-14T10:22:01.686Z,988.6649
2023-05-14T10:23:02.171Z,988.6827
2023-05-14T10:24:01.609Z,988.6584
2023-05-14T10:25:03.766Z,988.6641
2023-05-14T10:26:03.195Z,988.6198
2023-05-14T10:27:02.006Z,988.7578
2023-05-14T10:28:03.127Z,988.7275
2023-05-14T10:29:01.923Z,988.8286
2023-05-14T10:30:01.368Z,988.6198
2023-05-14T10:31:03.588Z,988.6255
2023-05-14T10:32:03.091Z,988.6819
2023-05-14T10:33:01.826Z,988.6842
2023-05-14T10:34:02.234Z,988.6242
2023-05-14T10:35:01.765Z,988.6031
2023-05-14T10:36:02.251Z,988.7406
2023-05-14T10:37:01.720Z,988.5938
2023-05-14T10:38:03.839Z,988.5341
2023-05-14T10:39:01.597Z,988.5188
2023-05-14T10:40:02.094Z,988.4167
2023-05-14T10:41:01.536Z,988.3133
2023-05-14T10:42:02.024Z,988.4284
2023-05-14T10:43:01.531Z,988.4344
2023-05-14T10:44:02.009Z,988.3957
2023-05-14T10:45:01.452Z,988.3473
2023-05-14T10:46:03.647Z,988.3463
2023-05-14T10:47:03.225Z,988.5072
2023-05-14T10:48:01.858Z,988.4708
2023-05-14T10:49:01.283Z,988.31
2023-05-14T10:50:03.468Z,988.4438
2023-05-14T10:51:02.328Z,988.3837
2023-05-14T10:52:01.772Z,988.2532
2023-05-14T10:53:02.199Z,988.39
2023-05-14T10:54:01.702Z,988.2532
2023-05-14T10:55:03.452Z,988.344
2023-05-14T10:56:01.586Z,988.33
2023-05-14T10:57:02.093Z,988.4662
2023-05-14T10:58:01.538Z,988.4862
2023-05-14T10:59:02.020Z,988.3487
2023-05-14T11:00:01.686Z,988.2389
2023-05-14T11:01:02.022Z,988.3827
2023-05-14T11:02:01.786Z,988.358
2023-05-14T11:03:02.149Z,988.2852
2023-05-14T11:04:01.493Z,988.2449
2023-05-14T11:05:01.931Z,988.332
2023-05-14T11:06:02.927Z,988.2539
2023-05-14T11:09:04.122Z,988.1895
2023-05-14T11:10:01.791Z,988.2119
2023-05-14T11:11:03.930Z,988.2759
2023-05-14T11:12:01.690Z,988.2586
2023-05-14T11:13:02.158Z,988.2129
2023-05-14T11:14:01.682Z,988.0473
2023-05-14T11:15:03.947Z,988.1177
2023-05-14T11:16:08.723Z,988.0495
2023-05-14T11:17:02.325Z,988.2458
2023-05-14T11:18:02.248Z,988.1342
2023-05-14T11:19:01.873Z,988.2308
2023-05-14T11:20:02.241Z,988.159
2023-05-14T11:21:01.789Z,988.1387
2023-05-14T11:23:01.956Z,988.181
2023-05-14T11:24:03.256Z,988.0778
2023-05-14T11:25:02.033Z,987.9474
2023-05-14T11:26:01.556Z,988.0603
2023-05-14T11:27:02.069Z,987.9875
2023-05-14T11:28:01.631Z,987.9474
2023-05-14T11:29:02.092Z,988.0415
2023-05-14T11:30:01.627Z,987.8791
2023-05-14T11:31:02.179Z,987.9271
2023-05-14T11:32:01.848Z,987.8109
2023-05-14T11:33:02.414Z,987.9597
2023-05-14T11:34:01.776Z,987.7972
2023-05-14T11:35:02.339Z,987.9128
2023-05-14T11:36:01.851Z,987.8315
2023-05-14T11:37:01.386Z,987.8659
2023-05-14T11:38:03.627Z,987.8343
2023-05-14T11:39:01.366Z,987.6963
2023-05-14T11:40:01.934Z,987.7236
2023-05-14T11:41:01.459Z,987.7166
2023-05-14T11:42:02.025Z,987.793
2023-05-14T11:43:01.551Z,987.7166
2023-05-14T11:44:03.707Z,987.8049
2023-05-14T11:45:01.578Z,987.7331
2023-05-14T11:46:02.162Z,987.9223
2023-05-14T11:47:01.616Z,987.7587
2023-05-14T11:48:02.232Z,987.8221
2023-05-14T11:49:03.366Z,987.8869
2023-05-14T11:50:03.847Z,987.8067
2023-05-14T11:51:01.675Z,987.7927
2023-05-14T11:52:03.924Z,987.7591
2023-05-14T11:53:01.783Z,987.6818
2023-05-14T11:54:02.328Z,987.7053